Terminal Aerodrome Forecast
Issued by NWS

Home | Current Version | Previous Version | Text Only | Print | Product List | Glossary Off
Versions: 1 2 3 4 5 6 7 8 9 10 11 12 13 14 15 16

648
FTUS43 KMPX 100523
TAFRNH
TAF
KRNH 100523Z 1006/1106 32006KT P6SM SKC
     FM101500 36005KT P6SM SCT250
     FM102200 33004KT P6SM SCT100 BKN200=

USA.gov is the U.S. government's official web portal to all federal, state and local government web resources and services.